New Braunfels, TX (78130)

4:20 AM CDT on July 28, 2015 (GMT -0500)
Dollar Dr. | | Change Station
CLOSE
Current Station
Personal Weather Station
Location: New Braunfels, TX
Elevation: 673 ft
Nearby Weather Stations

Elev 673 ft 29.70 °N, 98.08 °W | Updated 9 seconds ago

Mostly Cloudy
Mostly Cloudy
78.3 °F
Feels Like 82 °F
N
0.7
Wind Variable Wind from South
Gusts 3.1 mph

Today
High -- | Low -- °F
--% Chance of Precip.
Yesterday
High -- | Low -- °F
Precip. -- in
6:49 AM 8:27 PM
Waxing Gibbous, 88% visible
Pressure 29.91 in
Visibility 10.0 miles
Clouds Mostly Cloudy 1000 ft
Mostly Cloudy 1700 ft
Heat Index 82 °F
Dew Point 78 °F
Humidity 99%
Rainfall 0.00 in
Snow Depth Not available.
UV 0 out of 12
Pollen 4.10 out of 12
Air Quality Not available.
Flu Activity Not available.
METAR KBAZ 280851Z AUTO 18005KT 10SM BKN010 BKN017 26/24 A2994 RMK AO2 CIG 008V012 SLP126 T02560239 58006

More Conditions Fewer Conditions

Pressure 29.91 in
Visibility 10.0 miles
Clouds Mostly Cloudy 1000 ft
Mostly Cloudy 1700 ft
Heat Index 82 °F
Dew Point 78 °F
Humidity 99%
Rainfall 0.00 in
Snow Depth Not available.
UV 0 out of 12
Pollen 4.10 out of 12
Air Quality Not available.
Flu Activity Not available.
METAR KBAZ 280851Z AUTO 18005KT 10SM BKN010 BKN017 26/24 A2994 RMK AO2 CIG 008V012 SLP126 T02560239 58006

More Conditions Fewer Conditions

10-Day Weather Forecast

×

Almanac

Astronomy

Jul. 28, 2015 Rise Set
Actual Time
Civil Twilight
Nautical Twilight
Astronomical Twilight
Moon
Length of Visible Light
Length of Day
Tomorrow will be .
, % of the Moon is Illuminated

Today's Extremes

State Highs State Lows

Community

WunderPhotos

Upload Photos

1,841,801 photos uploaded!

WunderBlogs® & News

Nearby

Air Quality

  Air Quality AQ Index Pollutant
Not available.

Snow Depth

Station Depth Elevation

Earthquake Activity

City Distance Mag. Time & Date
Minimum magnitude displayed is 2.5.

Coastal Water Temperatures

Place Temperature

Stations

Nearby Weather Stations

Station Location Temp. Windchill Dew Point Humidity Wind Precip. Elev Updated Type